»·PEaware :: BOE565 KBFI-KGEG

BOE565 :: KBFI-KGEG

FLIGHT INFORMATION

Flight Status: Arrived
Operator:
Boeing Commercial Airplane Group
More flights by this operator :: More flights under this callsign
Pilot: Anonymous 17611 (17611)
Aircraft: BOEING 737-800
(B738)
More flights by this aircraft type
Origin: KBFI Boeing Field/King Co Intl
United States
Destination: KGEG Spokane Intl
United States
More flights between these airports :: More routes between these airports
Route: +NRVNA1 ZADON ZELAK ZIRAN ZOOMR ZOOMR1
File this flight plan on PilotEdge
Remarks:
Altitude:
(Current/Filed)
25,000ft
Speed:
(Current/Filed)
448kts
Departed: 17-May-18 04:25 PM
Arrived: 17-May-18 05:05 PM
Distance/Time
Traveled:
193nm/0:40
Distance/Time
To Go:
Arrived

Flight Plot

Page will automatically refresh every two minutes.

Flight plan parsing failed; only flown route is shown


Map Options




Map Legend


Flown Route
Filed Route
Departure Airport
Arrival Airport
Navaid (VOR, NDB)
Fix

Horizontal Profiles

Position Reports

Time Latitude Longitude Heading Altitude Ground
Speed
17-May-18 16:02 47.535865 -122.310172 240 17ft 0kts
17-May-18 16:03 47.535865 -122.310172 240 17ft 0kts
17-May-18 16:04 47.535865 -122.310172 240 17ft 0kts
17-May-18 16:05 47.535865 -122.310172 240 17ft 0kts
17-May-18 16:06 47.535865 -122.310172 240 17ft 0kts
17-May-18 16:07 47.535865 -122.310172 240 17ft 0kts
17-May-18 16:08 47.535865 -122.310172 240 17ft 0kts
17-May-18 16:09 47.535865 -122.310172 240 17ft 0kts
17-May-18 16:10 47.535865 -122.310172 240 17ft 0kts
17-May-18 16:11 47.535865 -122.310172 240 17ft 0kts
17-May-18 16:12 47.535865 -122.310172 240 17ft 0kts
17-May-18 16:13 47.535865 -122.310172 240 17ft 0kts
17-May-18 16:14 47.535865 -122.310172 240 17ft 0kts
17-May-18 16:15 47.535865 -122.310172 240 17ft 0kts
17-May-18 16:16 47.535865 -122.310172 240 17ft 0kts
17-May-18 16:17 47.535865 -122.310172 240 17ft 0kts
17-May-18 16:18 47.535865 -122.310172 239 17ft 0kts
17-May-18 16:19 47.535865 -122.310172 240 17ft 0kts
17-May-18 16:20 47.535694 -122.310668 268 17ft 3kts
17-May-18 16:21 47.537085 -122.312414 329 17ft 10kts
17-May-18 16:22 47.539430 -122.313425 62 19ft 0kts
17-May-18 16:23 47.539825 -122.312344 60 20ft 0kts
17-May-18 16:24 47.540100 -122.311545 77 21ft 7kts
17-May-18 16:25 47.522775 -122.296351 151 588ft 171kts
17-May-18 16:26 47.482030 -122.261769 150 2078ft 186kts
17-May-18 16:27 47.426107 -122.214911 150 2150ft 289kts
17-May-18 16:28 47.387628 -122.155443 84 2782ft 242kts
17-May-18 16:29 47.428242 -122.092795 35 3910ft 219kts
17-May-18 16:30 47.480099 -122.041243 35 6126ft 227kts
17-May-18 16:31 47.524175 -121.982572 50 7926ft 229kts
17-May-18 16:32 47.550576 -121.899450 81 10577ft 239kts
17-May-18 16:33 47.557598 -121.795411 82 12945ft 292kts
17-May-18 16:34 47.560935 -121.662957 88 15988ft 340kts
17-May-18 16:35 47.559212 -121.519706 87 19498ft 361kts
17-May-18 16:36 47.557035 -121.367975 87 22564ft 383kts
17-May-18 16:37 47.554280 -121.208621 87 24972ft 403kts
17-May-18 16:38 47.551034 -121.034580 90 24971ft 444kts
17-May-18 16:39 47.547490 -120.851188 90 24961ft 446kts
17-May-18 16:40 47.544167 -120.669399 90 24955ft 447kts
17-May-18 16:41 47.541044 -120.484571 90 24931ft 446kts
17-May-18 16:42 47.535712 -120.321958 94 24926ft 447kts
17-May-18 16:43 47.525583 -120.148148 94 24925ft 447kts
17-May-18 16:44 47.514705 -119.967892 94 24927ft 447kts
17-May-18 16:45 47.503707 -119.781977 94 24934ft 447kts
17-May-18 16:46 47.493183 -119.599374 93 24404ft 443kts
17-May-18 16:47 47.483406 -119.426103 93 22378ft 407kts
17-May-18 16:48 47.475598 -119.284282 94 20628ft 392kts
17-May-18 16:49 47.467150 -119.126892 93 18627ft 379kts
17-May-18 16:50 47.459141 -118.974138 93 16618ft 368kts
17-May-18 16:51 47.451679 -118.829990 92 14662ft 358kts
17-May-18 16:52 47.444592 -118.687076 91 12677ft 345kts
17-May-18 16:53 47.437808 -118.548307 91 11914ft 323kts
17-May-18 16:54 47.431793 -118.423301 91 11970ft 300kts
17-May-18 16:55 47.427407 -118.305749 80 11989ft 297kts
17-May-18 16:56 47.447258 -118.186298 90 10770ft 310kts
17-May-18 16:57 47.438606 -118.066286 94 8453ft 277kts
17-May-18 16:58 47.430859 -117.958941 94 6199ft 263kts
17-May-18 16:59 47.451457 -117.866509 64 6022ft 218kts
17-May-18 17:00 47.479225 -117.791062 55 5974ft 211kts
17-May-18 17:01 47.503980 -117.713918 62 4314ft 197kts
17-May-18 17:02 47.536581 -117.660778 47 3894ft 163kts
17-May-18 17:03 47.569285 -117.611490 46 3553ft 168kts
17-May-18 17:04 47.600130 -117.565039 46 2674ft 151kts
17-May-18 17:05 47.622251 -117.531974 29 2359ft 28kts
17-May-18 17:06 47.625113 -117.531595 238 2357ft 8kts
17-May-18 17:07 47.624465 -117.534598 326 2360ft 5kts

Navigation Log

Ident Type
Flight plan parsing failed, navigation log unavailable